Time;durP1;ratioP1;P1;durP2;ratioP2;P2;SDS_P1;SDS_P2;PMS_P1;PMS_P2;Temp;Humidity;BMP_temperature;BMP_pressure;BME280_temperature;BME280_humidity;BME280_pressure;Samples;Min_cycle;Max_cycle;Signal;HPM_P1;HPM_P2
2022/05/13 00:02:07;;;;;;;;;;;;;;;;;;4991162;28;1120;-72
2022/05/13 00:04:33;;;;;;;;;;;;;;;;;;4991374;28;1088;-71
2022/05/13 00:07:00;;;;;;;;;;;;;;;;;;4989961;28;1184;-72
2022/05/13 00:09:56;;;;;;;;;;;;;;;;;;4991146;28;1037;-72
2022/05/13 00:12:14;;;;;;;;;;;;;;;;;;4991186;28;1053;-71
2022/05/13 00:14:41;;;;;;;;;;;;;;;;;;4990907;28;883;-69
2022/05/13 00:17:07;;;;;;;;;;;;;;;;;;4990867;28;1069;-71
2022/05/13 00:19:34;;;;;;;;;;;;;;;;;;4990842;28;1910;-71
2022/05/13 00:22:00;;;;;;;;;;;;;;;;;;4989425;28;1434;-72
2022/05/13 00:24:26;;;;;;;;;;;;;;;;;;4994257;28;1078;-71
2022/05/13 00:26:52;;;;;;;;;;;;;;;;;;4995206;28;1126;-71
2022/05/13 00:29:20;;;;;;;;;;;;;;;;;;4995174;28;810;-71
2022/05/13 00:31:46;;;;;;;;;;;;;;;;;;4993450;28;1350;-72
2022/05/13 00:34:13;;;;;;;;;;;;;;;;;;4995107;28;1020;-71
2022/05/13 00:36:39;;;;;;;;;;;;;;;;;;4993394;28;1340;-71
2022/05/13 00:39:06;;;;;;;;;;;;;;;;;;4994555;28;1922;-72
2022/05/13 00:41:32;;;;;;;;;;;;;;;;;;4994951;28;1325;-73
2022/05/13 00:43:58;;;;;;;;;;;;;;;;;;4994564;28;1085;-74
2022/05/13 00:46:28;;;;;;;;;;;;;;;;;;4994542;28;1016;-72
2022/05/13 00:48:54;;;;;;;;;;;;;;;;;;4994781;28;894;-72
2022/05/13 00:51:21;;;;;;;;;;;;;;;;;;4994568;28;1390;-71
2022/05/13 00:53:47;;;;;;;;;;;;;;;;;;4994430;28;985;-72
2022/05/13 00:56:13;;;;;;;;;;;;;;;;;;4994274;28;1045;-72
2022/05/13 00:58:41;;;;;;;;;;;;;;;;;;4994361;28;1914;-72
2022/05/13 01:01:07;;;;;;;;;;;;;;;;;;4995695;28;1622;-71
2022/05/13 01:03:35;;;;;;;;;;;;;;;;;;4994742;28;985;-71
2022/05/13 01:06:03;;;;;;;;;;;;;;;;;;4994404;28;1072;-72
2022/05/13 01:08:31;;;;;;;;;;;;;;;;;;4994104;28;1013;-72
2022/05/13 01:10:57;;;;;;;;;;;;;;;;;;4994032;28;1321;-70
2022/05/13 01:13:23;;;;;;;;;;;;;;;;;;4994311;28;704;-72
2022/05/13 01:15:49;;;;;;;;;;;;;;;;;;4993861;28;1399;-71
2022/05/13 01:18:23;;;;;;;;;;;;;;;;;;4993982;28;1968;-71
2022/05/13 01:20:51;;;;;;;;;;;;;;;;;;4994020;28;1353;-72
2022/05/13 01:23:19;;;;;;;;;;;;;;;;;;4994210;28;1123;-72
2022/05/13 01:25:46;;;;;;;;;;;;;;;;;;4994101;28;1072;-73
2022/05/13 01:28:13;;;;;;;;;;;;;;;;;;4993725;28;1072;-72
2022/05/13 01:30:42;;;;;;;;;;;;;;;;;;4993842;28;1342;-73
2022/05/13 01:33:08;;;;;;;;;;;;;;;;;;4993921;28;1112;-72
2022/05/13 01:35:37;;;;;;;;;;;;;;;;;;4991642;28;946;-72
2022/05/13 01:38:03;;;;;;;;;;;;;;;;;;4993494;28;1907;-71
2022/05/13 01:40:31;;;;;;;;;;;;;;;;;;4992606;28;1352;-71
2022/05/13 01:42:57;;;;;;;;;;;;;;;;;;4993683;28;1127;-72
2022/05/13 01:45:23;;;;;;;;;;;;;;;;;;4993822;28;814;-71
2022/05/13 01:47:49;;;;;;;;;;;;;;;;;;4993449;28;1072;-71
2022/05/13 01:50:15;;;;;;;;;;;;;;;;;;4993475;28;1326;-70
2022/05/13 01:52:42;;;;;;;;;;;;;;;;;;4993534;28;1032;-71
2022/05/13 01:55:08;;;;;;;;;;;;;;;;;;4993445;28;794;-72
2022/05/13 01:57:36;;;;;;;;;;;;;;;;;;4993164;28;921;-71
2022/05/13 02:00:02;;;;;;;;;;;;;;;;;;4993465;28;1979;-70
2022/05/13 02:05:18;;;;;;;;;;;;;;;;;;4993128;28;1037;-73
2022/05/13 02:07:44;;;;;;;;;;;;;;;;;;4992914;28;1076;-74
2022/05/13 02:10:10;;;;;;;;;;;;;;;;;;4992911;28;1335;-72
2022/05/13 02:12:38;;;;;;;;;;;;;;;;;;4993035;28;1138;-74
2022/05/13 02:15:05;;;;;;;;;;;;;;;;;;4992958;28;1080;-72
2022/05/13 02:17:31;;;;;;;;;;;;;;;;;;4992959;28;1071;-73
2022/05/13 02:19:57;;;;;;;;;;;;;;;;;;4992816;28;2115;-74
2022/05/13 02:22:23;;;;;;;;;;;;;;;;;;4993069;28;1060;-73
2022/05/13 02:24:49;;;;;;;;;;;;;;;;;;4992998;28;1076;-72
2022/05/13 02:27:16;;;;;;;;;;;;;;;;;;4992539;28;885;-74
2022/05/13 02:29:43;;;;;;;;;;;;;;;;;;4992865;28;1325;-70
2022/05/13 02:32:09;;;;;;;;;;;;;;;;;;4992933;28;799;-72
2022/05/13 02:34:36;;;;;;;;;;;;;;;;;;4992984;28;1127;-72
2022/05/13 02:37:03;;;;;;;;;;;;;;;;;;4991336;28;943;-73
2022/05/13 02:39:29;;;;;;;;;;;;;;;;;;4992673;28;1978;-72
2022/05/13 02:41:55;;;;;;;;;;;;;;;;;;4992497;28;1413;-72
2022/05/13 02:44:22;;;;;;;;;;;;;;;;;;4992316;28;1108;-71
2022/05/13 02:46:50;;;;;;;;;;;;;;;;;;4990955;28;1242;-72
2022/05/13 02:49:16;;;;;;;;;;;;;;;;;;4992659;28;1067;-72
2022/05/13 02:51:43;;;;;;;;;;;;;;;;;;4992808;28;1676;-72
2022/05/13 02:54:09;;;;;;;;;;;;;;;;;;4993914;28;1484;-73
2022/05/13 02:56:35;;;;;;;;;;;;;;;;;;4992103;28;1146;-73
2022/05/13 02:59:02;;;;;;;;;;;;;;;;;;4991060;28;1918;-74
2022/05/13 03:01:28;;;;;;;;;;;;;;;;;;4992096;28;1326;-72
2022/05/13 03:03:56;;;;;;;;;;;;;;;;;;4992108;28;853;-71
2022/05/13 03:06:22;;;;;;;;;;;;;;;;;;4991948;28;941;-73
2022/05/13 03:08:49;;;;;;;;;;;;;;;;;;4992114;28;953;-73
2022/05/13 03:11:16;;;;;;;;;;;;;;;;;;4992207;28;1321;-72
2022/05/13 03:13:42;;;;;;;;;;;;;;;;;;4991989;28;867;-72
2022/05/13 03:16:09;;;;;;;;;;;;;;;;;;4991906;28;799;-70
2022/05/13 03:18:36;;;;;;;;;;;;;;;;;;4991553;28;1910;-74
2022/05/13 03:21:04;;;;;;;;;;;;;;;;;;4991738;28;1282;-73
2022/05/13 03:23:30;;;;;;;;;;;;;;;;;;4990673;28;1300;-71
2022/05/13 03:25:56;;;;;;;;;;;;;;;;;;4991766;28;1067;-72
2022/05/13 03:28:22;;;;;;;;;;;;;;;;;;4991718;28;891;-72
2022/05/13 03:30:49;;;;;;;;;;;;;;;;;;4991827;28;1327;-72
2022/05/13 03:33:16;;;;;;;;;;;;;;;;;;4991751;28;1060;-72
2022/05/13 03:35:42;;;;;;;;;;;;;;;;;;4991366;28;949;-72
2022/05/13 03:38:09;;;;;;;;;;;;;;;;;;4991321;28;1130;-72
2022/05/13 03:40:37;;;;;;;;;;;;;;;;;;4991519;28;1922;-72
2022/05/13 03:43:04;;;;;;;;;;;;;;;;;;4990630;28;741;-72
2022/05/13 03:45:32;;;;;;;;;;;;;;;;;;4991519;28;890;-72
2022/05/13 03:47:58;;;;;;;;;;;;;;;;;;4991149;28;795;-72
2022/05/13 03:50:25;;;;;;;;;;;;;;;;;;4991537;28;1348;-72
2022/05/13 03:52:51;;;;;;;;;;;;;;;;;;4991153;28;1021;-72
2022/05/13 03:55:19;;;;;;;;;;;;;;;;;;4991281;28;936;-72
2022/05/13 03:57:45;;;;;;;;;;;;;;;;;;4990447;28;1060;-73
2022/05/13 04:00:12;;;;;;;;;;;;;;;;;;4991150;28;1922;-71
2022/05/13 04:02:38;;;;;;;;;;;;;;;;;;4991335;28;1119;-72
2022/05/13 04:10:34;;;;;;;;;;;;;;;;;;5010531;28;1307;-71
2022/05/13 04:18:27;;;;;;;;;;;;;;;;;;5010532;28;811;-72
2022/05/13 04:20:54;;;;;;;;;;;;;;;;;;5010278;28;1907;-72
2022/05/13 04:23:20;;;;;;;;;;;;;;;;;;5046985;23;3756;-71
2022/05/13 04:25:47;;;;;;;;;;;;;;;;;;5030091;28;1117;-71
2022/05/13 04:28:14;;;;;;;;;;;;;;;;;;5030136;28;1119;-71
2022/05/13 04:30:40;;;;;;;;;;;;;;;;;;5030350;28;1123;-70
2022/05/13 04:33:06;;;;;;;;;;;;;;;;;;5030417;28;1453;-71
2022/05/13 04:35:32;;;;;;;;;;;;;;;;;;5030644;28;1091;-70
2022/05/13 04:37:58;;;;;;;;;;;;;;;;;;5029976;28;699;-70
2022/05/13 04:40:25;;;;;;;;;;;;;;;;;;5030502;28;1910;-70
2022/05/13 04:42:51;;;;;;;;;;;;;;;;;;5029083;28;1333;-71
2022/05/13 04:45:23;;;;;;;;;;;;;;;;;;5030022;28;1004;-71
2022/05/13 04:50:33;;;;;;;;;;;;;;;;;;5030204;28;953;-71
2022/05/13 04:53:00;;;;;;;;;;;;;;;;;;5030357;28;1377;-72
2022/05/13 04:55:26;;;;;;;;;;;;;;;;;;5030751;28;932;-70
2022/05/13 04:57:54;;;;;;;;;;;;;;;;;;5032272;28;1440;-71
2022/05/13 05:00:20;;;;;;;;;;;;;;;;;;5029989;28;1922;-71
2022/05/13 05:02:46;;;;;;;;;;;;;;;;;;5039998;28;1543;-71
2022/05/13 05:05:13;;;;;;;;;;;;;;;;;;5048765;28;1275;-72
2022/05/13 05:07:39;;;;;;;;;;;;;;;;;;5040859;28;794;-71
2022/05/13 05:10:05;;;;;;;;;;;;;;;;;;5036848;28;1451;-72
2022/05/13 05:12:32;;;;;;;;;;;;;;;;;;5045403;28;1471;-72
2022/05/13 05:14:59;;;;;;;;;;;;;;;;;;5035803;28;1154;-71
2022/05/13 05:17:25;;;;;;;;;;;;;;;;;;5038597;28;1395;-72
2022/05/13 05:19:51;;;;;;;;;;;;;;;;;;5050183;28;1917;-71
2022/05/13 05:22:18;;;;;;;;;;;;;;;;;;5053588;28;1358;-71
2022/05/13 05:24:44;;;;;;;;;;;;;;;;;;5053517;28;619;-71
2022/05/13 05:27:11;;;;;;;;;;;;;;;;;;5041015;28;1387;-72
2022/05/13 05:29:37;;;;;;;;;;;;;;;;;;5042241;28;1354;-71
2022/05/13 05:32:06;;;;;;;;;;;;;;;;;;5017494;28;1372;-69
2022/05/13 05:34:33;;;;;;;;;;;;;;;;;;5041380;28;1404;-69
2022/05/13 05:37:00;;;;;;;;;;;;;;;;;;5038085;28;1435;-71
2022/05/13 05:39:26;;;;;;;;;;;;;;;;;;5044642;28;1914;-70
2022/05/13 05:41:52;;;;;;;;;;;;;;;;;;5042191;28;1378;-70
2022/05/13 05:44:18;;;;;;;;;;;;;;;;;;5041503;28;1134;-69
2022/05/13 05:46:44;;;;;;;;;;;;;;;;;;5035118;28;1537;-70
2022/05/13 05:49:12;;;;;;;;;;;;;;;;;;5039789;28;1201;-70
2022/05/13 05:51:38;;;;;;;;;;;;;;;;;;5041301;28;1490;-71
2022/05/13 05:59:32;;;;;;;;;;;;;;;;;;5045724;28;1922;-70
2022/05/13 06:01:58;;;;;;;;;;;;;;;;;;5046797;28;1565;-71
2022/05/13 06:04:26;;;;;;;;;;;;;;;;;;5045511;28;1052;-70
2022/05/13 06:06:52;;;;;;;;;;;;;;;;;;5051129;28;1044;-71
2022/05/13 06:09:18;;;;;;;;;;;;;;;;;;5052731;28;1078;-71
2022/05/13 06:11:44;;;;;;;;;;;;;;;;;;5052244;28;1335;-71
2022/05/13 06:14:10;;;;;;;;;;;;;;;;;;5047710;28;1439;-70
2022/05/13 06:16:37;;;;;;;;;;;;;;;;;;5042860;28;1402;-71
2022/05/13 06:19:03;;;;;;;;;;;;;;;;;;5045503;28;1461;-70
2022/05/13 06:21:31;;;;;;;;;;;;;;;;;;5036210;28;1977;-69
2022/05/13 06:23:57;;;;;;;;;;;;;;;;;;5032341;28;890;-71
2022/05/13 06:26:24;;;;;;;;;;;;;;;;;;5032075;28;895;-70
2022/05/13 06:28:50;;;;;;;;;;;;;;;;;;5037431;28;1371;-71
2022/05/13 06:31:18;;;;;;;;;;;;;;;;;;5040494;28;1242;-71
2022/05/13 06:33:44;;;;;;;;;;;;;;;;;;5032165;28;1272;-68
2022/05/13 06:36:10;;;;;;;;;;;;;;;;;;5031394;28;1040;-67
2022/05/13 06:38:38;;;;;;;;;;;;;;;;;;5035679;28;1415;-69
2022/05/13 06:41:04;;;;;;;;;;;;;;;;;;5041458;28;1930;-68
2022/05/13 06:43:30;;;;;;;;;;;;;;;;;;5032731;28;1451;-68
2022/05/13 06:45:56;;;;;;;;;;;;;;;;;;5048266;28;1147;-70
2022/05/13 06:48:23;;;;;;;;;;;;;;;;;;5050856;28;1438;-70
2022/05/13 06:50:49;;;;;;;;;;;;;;;;;;5037954;28;1520;-70
2022/05/13 06:53:15;;;;;;;;;;;;;;;;;;5046766;28;1466;-69
2022/05/13 06:55:44;;;;;;;;;;;;;;;;;;5041072;28;1395;-71
2022/05/13 06:58:10;;;;;;;;;;;;;;;;;;5036990;28;1514;-69
2022/05/13 07:00:36;;;;;;;;;;;;;;;;;;5054692;28;1913;-70
2022/05/13 07:03:03;;;;;;;;;;;;;;;;;;5038545;28;1265;-71
2022/05/13 07:05:29;;;;;;;;;;;;;;;;;;5039003;28;1527;-71
2022/05/13 07:07:55;;;;;;;;;;;;;;;;;;5051075;28;897;-71
2022/05/13 07:10:22;;;;;;;;;;;;;;;;;;5047453;28;1399;-72
2022/05/13 07:12:49;;;;;;;;;;;;;;;;;;5045391;28;1365;-71
2022/05/13 07:15:16;;;;;;;;;;;;;;;;;;5049970;28;1122;-72
2022/05/13 07:17:42;;;;;;;;;;;;;;;;;;5049300;28;1435;-71
2022/05/13 07:20:09;;;;;;;;;;;;;;;;;;5042618;28;1914;-72
2022/05/13 07:22:35;;;;;;;;;;;;;;;;;;5050535;28;1262;-72
2022/05/13 07:25:01;;;;;;;;;;;;;;;;;;5042070;28;1450;-72
2022/05/13 07:27:28;;;;;;;;;;;;;;;;;;5037473;28;1162;-72
2022/05/13 07:29:55;;;;;;;;;;;;;;;;;;5037494;28;1442;-72
2022/05/13 07:32:21;;;;;;;;;;;;;;;;;;5043072;28;1503;-72
2022/05/13 07:34:47;;;;;;;;;;;;;;;;;;5050270;28;1119;-72
2022/05/13 07:37:14;;;;;;;;;;;;;;;;;;5048558;28;1107;-72
2022/05/13 07:42:25;;;;;;;;;;;;;;;;;;5038673;28;1495;-71
2022/05/13 07:44:51;;;;;;;;;;;;;;;;;;5047241;28;1151;-71
2022/05/13 07:47:19;;;;;;;;;;;;;;;;;;5048679;28;1296;-70
2022/05/13 07:49:45;;;;;;;;;;;;;;;;;;5062740;28;1364;-70
2022/05/13 07:52:11;;;;;;;;;;;;;;;;;;5042538;28;1447;-71
2022/05/13 07:54:37;;;;;;;;;;;;;;;;;;5038595;28;1438;-70
2022/05/13 07:57:04;;;;;;;;;;;;;;;;;;5042059;28;1158;-71
2022/05/13 07:59:32;;;;;;;;;;;;;;;;;;5045559;28;1157;-71
2022/05/13 08:01:58;;;;;;;;;;;;;;;;;;5046254;28;1918;-71
2022/05/13 08:04:26;;;;;;;;;;;;;;;;;;5041315;28;1122;-71
2022/05/13 08:06:52;;;;;;;;;;;;;;;;;;5025656;28;1068;-70
2022/05/13 08:09:18;;;;;;;;;;;;;;;;;;5029786;28;1104;-71
2022/05/13 08:11:44;;;;;;;;;;;;;;;;;;5029714;28;1462;-70
2022/05/13 08:14:11;;;;;;;;;;;;;;;;;;5035164;28;1395;-69
2022/05/13 08:16:37;;;;;;;;;;;;;;;;;;5034538;28;1122;-69
2022/05/13 08:19:04;;;;;;;;;;;;;;;;;;5030009;28;755;-70
2022/05/13 08:21:32;;;;;;;;;;;;;;;;;;5029577;28;1918;-69
2022/05/13 08:23:58;;;;;;;;;;;;;;;;;;5035390;28;1403;-71
2022/05/13 08:26:24;;;;;;;;;;;;;;;;;;5035916;28;1240;-72
2022/05/13 08:28:50;;;;;;;;;;;;;;;;;;5039538;28;1462;-72
2022/05/13 08:31:16;;;;;;;;;;;;;;;;;;5038527;28;1359;-71
2022/05/13 08:33:43;;;;;;;;;;;;;;;;;;5033867;28;1430;-71
2022/05/13 08:36:09;;;;;;;;;;;;;;;;;;5029001;28;1126;-71
2022/05/13 08:38:38;;;;;;;;;;;;;;;;;;5029233;28;980;-72
2022/05/13 08:41:14;;;;;;;;;;;;;;;;;;5044175;28;1922;-71
2022/05/13 08:43:41;;;;;;;;;;;;;;;;;;5032257;28;1422;-71
2022/05/13 08:46:10;;;;;;;;;;;;;;;;;;5033371;28;1068;-70
2022/05/13 08:48:39;;;;;;;;;;;;;;;;;;5033252;28;1012;-69
2022/05/13 08:51:07;;;;;;;;;;;;;;;;;;5047439;28;1422;-70
2022/05/13 08:53:36;;;;;;;;;;;;;;;;;;5048646;28;1402;-70
2022/05/13 08:56:04;;;;;;;;;;;;;;;;;;5045397;28;1453;-69
2022/05/13 08:58:32;;;;;;;;;;;;;;;;;;5040793;28;1298;-68
2022/05/13 09:00:59;;;;;;;;;;;;;;;;;;5039106;28;1942;-70
2022/05/13 09:03:27;;;;;;;;;;;;;;;;;;5046727;28;1454;-69
2022/05/13 09:05:55;;;;;;;;;;;;;;;;;;5042548;28;1245;-70
2022/05/13 09:08:21;;;;;;;;;;;;;;;;;;5049122;28;1482;-70
2022/05/13 09:10:51;;;;;;;;;;;;;;;;;;5034329;28;938;-70
2022/05/13 09:13:19;;;;;;;;;;;;;;;;;;5053036;28;1344;-70
2022/05/13 09:15:46;;;;;;;;;;;;;;;;;;5045545;28;1582;-70
2022/05/13 09:18:14;;;;;;;;;;;;;;;;;;5036095;28;1371;-70
2022/05/13 09:20:41;;;;;;;;;;;;;;;;;;5040024;28;1914;-69
2022/05/13 09:23:09;;;;;;;;;;;;;;;;;;5032813;28;1328;-70
2022/05/13 09:25:37;;;;;;;;;;;;;;;;;;5050104;28;1365;-70
2022/05/13 09:28:14;;;;;;;;;;;;;;;;;;5052199;28;941;-71
2022/05/13 09:30:42;;;;;;;;;;;;;;;;;;5047882;28;1406;-69
2022/05/13 09:33:18;;;;;;;;;;;;;;;;;;5045402;28;1300;-69
2022/05/13 09:35:44;;;;;;;;;;;;;;;;;;5032916;28;1174;-69
2022/05/13 09:38:13;;;;;;;;;;;;;;;;;;5046009;28;1500;-70
2022/05/13 09:40:39;;;;;;;;;;;;;;;;;;5048030;28;1910;-70
2022/05/13 09:43:06;;;;;;;;;;;;;;;;;;5052756;28;1442;-71
2022/05/13 09:45:33;;;;;;;;;;;;;;;;;;5052290;28;837;-70
2022/05/13 09:48:02;;;;;;;;;;;;;;;;;;5047551;28;1654;-70
2022/05/13 09:50:29;;;;;;;;;;;;;;;;;;5044503;28;1421;-70
2022/05/13 09:53:02;;;;;;;;;;;;;;;;;;5037524;28;1422;-70
2022/05/13 09:55:32;;;;;;;;;;;;;;;;;;5047057;28;1218;-71
2022/05/13 09:58:00;;;;;;;;;;;;;;;;;;5042387;28;1403;-70
2022/05/13 10:00:30;;;;;;;;;;;;;;;;;;5038235;28;1976;-71
2022/05/13 10:03:08;;;;;;;;;;;;;;;;;;5043649;28;1375;-69
2022/05/13 10:05:35;;;;;;;;;;;;;;;;;;5039227;28;1848;-69
2022/05/13 10:08:02;;;;;;;;;;;;;;;;;;5047997;28;1901;-72
2022/05/13 10:15:59;;;;;;;;;;;;;;;;;;5043477;28;1445;-70
2022/05/13 10:18:29;;;;;;;;;;;;;;;;;;5042215;28;1383;-71
2022/05/13 10:20:55;;;;;;;;;;;;;;;;;;5042503;28;1963;-71
2022/05/13 10:23:23;;;;;;;;;;;;;;;;;;5031650;28;1395;-71
2022/05/13 10:25:52;;;;;;;;;;;;;;;;;;5030799;28;1363;-70
2022/05/13 10:28:19;;;;;;;;;;;;;;;;;;5032794;28;1379;-71
2022/05/13 10:30:46;;;;;;;;;;;;;;;;;;5040953;28;1422;-71
2022/05/13 10:33:16;;;;;;;;;;;;;;;;;;5046194;28;1418;-70
2022/05/13 10:35:45;;;;;;;;;;;;;;;;;;5039723;28;1545;-69
2022/05/13 10:38:13;;;;;;;;;;;;;;;;;;5038916;28;1134;-71
2022/05/13 10:40:40;;;;;;;;;;;;;;;;;;5031430;28;1977;-70
2022/05/13 10:43:09;;;;;;;;;;;;;;;;;;5037310;28;1426;-69
2022/05/13 10:45:37;;;;;;;;;;;;;;;;;;5049154;28;1124;-71
2022/05/13 10:48:11;;;;;;;;;;;;;;;;;;5050042;28;1012;-69
2022/05/13 10:50:38;;;;;;;;;;;;;;;;;;5050719;28;1343;-70
2022/05/13 10:53:06;;;;;;;;;;;;;;;;;;5040423;28;1396;-69
2022/05/13 10:55:34;;;;;;;;;;;;;;;;;;5037963;28;1419;-70
2022/05/13 10:58:03;;;;;;;;;;;;;;;;;;5037009;28;1335;-70
2022/05/13 11:00:30;;;;;;;;;;;;;;;;;;5030526;28;977;-71
2022/05/13 11:03:14;;;;;;;;;;;;;;;;;;5037233;28;1987;-69
2022/05/13 11:05:42;;;;;;;;;;;;;;;;;;5029098;28;1273;-70
2022/05/13 11:08:14;;;;;;;;;;;;;;;;;;5029641;28;1042;-70
2022/05/13 11:10:42;;;;;;;;;;;;;;;;;;5032480;28;1375;-70
2022/05/13 11:13:11;;;;;;;;;;;;;;;;;;5046784;28;1456;-69
2022/05/13 11:15:38;;;;;;;;;;;;;;;;;;5041861;28;1418;-70
2022/05/13 11:18:08;;;;;;;;;;;;;;;;;;5032445;28;1127;-70
2022/05/13 11:20:36;;;;;;;;;;;;;;;;;;5030650;28;1119;-70
2022/05/13 11:23:06;;;;;;;;;;;;;;;;;;5036321;28;1914;-71
2022/05/13 11:28:36;;;;;;;;;;;;;;;;;;5048253;28;994;-72
2022/05/13 11:31:05;;;;;;;;;;;;;;;;;;5044143;28;1383;-71
2022/05/13 11:33:33;;;;;;;;;;;;;;;;;;5039575;28;1454;-71
2022/05/13 11:36:03;;;;;;;;;;;;;;;;;;5036234;28;1177;-71
2022/05/13 11:38:31;;;;;;;;;;;;;;;;;;5049269;28;1419;-72
2022/05/13 11:41:00;;;;;;;;;;;;;;;;;;5040589;28;1975;-71
2022/05/13 11:43:30;;;;;;;;;;;;;;;;;;5031063;28;1404;-71
2022/05/13 11:46:18;;;;;;;;;;;;;;;;;;5040218;28;1351;-70
2022/05/13 11:48:45;;;;;;;;;;;;;;;;;;5038000;28;1438;-71
2022/05/13 11:51:12;;;;;;;;;;;;;;;;;;5041633;28;1060;-71
2022/05/13 11:53:45;;;;;;;;;;;;;;;;;;5049384;28;1431;-72
2022/05/13 11:56:18;;;;;;;;;;;;;;;;;;5039251;28;1359;-70
2022/05/13 11:58:49;;;;;;;;;;;;;;;;;;5043275;28;1597;-71
2022/05/13 12:01:23;;;;;;;;;;;;;;;;;;5042902;28;1918;-71
2022/05/13 12:04:10;;;;;;;;;;;;;;;;;;5033096;28;1271;-68
2022/05/13 12:06:51;;;;;;;;;;;;;;;;;;5029437;28;1876;-71
2022/05/13 12:09:17;;;;;;;;;;;;;;;;;;5029771;28;1424;-71
2022/05/13 12:11:48;;;;;;;;;;;;;;;;;;5041793;28;1405;-69
2022/05/13 12:14:20;;;;;;;;;;;;;;;;;;5038251;28;1111;-70
2022/05/13 12:16:48;;;;;;;;;;;;;;;;;;5029628;28;1072;-71
2022/05/13 12:19:23;;;;;;;;;;;;;;;;;;5029350;28;953;-71
2022/05/13 12:21:51;;;;;;;;;;;;;;;;;;5033378;28;1965;-70
2022/05/13 12:24:20;;;;;;;;;;;;;;;;;;5037585;28;1189;-71
2022/05/13 12:27:06;;;;;;;;;;;;;;;;;;5029318;28;1060;-71
2022/05/13 12:29:42;;;;;;;;;;;;;;;;;;5029712;28;1146;-70
2022/05/13 12:32:10;;;;;;;;;;;;;;;;;;5038126;28;1398;-70
2022/05/13 12:37:36;;;;;;;;;;;;;;;;;;5038007;28;1413;-71
2022/05/13 12:40:13;;;;;;;;;;;;;;;;;;5031143;28;1106;-70
2022/05/13 12:42:42;;;;;;;;;;;;;;;;;;5029477;28;1918;-69
2022/05/13 12:45:11;;;;;;;;;;;;;;;;;;5028196;28;1414;-69
2022/05/13 12:47:52;;;;;;;;;;;;;;;;;;5039891;28;1715;-70
2022/05/13 12:50:22;;;;;;;;;;;;;;;;;;5029223;28;1396;-71
2022/05/13 12:52:48;;;;;;;;;;;;;;;;;;5036734;28;1479;-69
2022/05/13 12:55:18;;;;;;;;;;;;;;;;;;5042392;28;1482;-70
2022/05/13 12:57:47;;;;;;;;;;;;;;;;;;5041283;28;1263;-70
2022/05/13 13:00:15;;;;;;;;;;;;;;;;;;5040625;28;1406;-71
2022/05/13 13:02:42;;;;;;;;;;;;;;;;;;5033874;28;1926;-71
2022/05/13 13:05:09;;;;;;;;;;;;;;;;;;5037126;28;1402;-68
2022/05/13 13:07:36;;;;;;;;;;;;;;;;;;5046301;28;1036;-69
2022/05/13 13:10:03;;;;;;;;;;;;;;;;;;5046896;28;1433;-70
2022/05/13 13:12:30;;;;;;;;;;;;;;;;;;5054368;28;1495;-68
2022/05/13 13:14:58;;;;;;;;;;;;;;;;;;5045526;28;1609;-67
2022/05/13 13:17:33;;;;;;;;;;;;;;;;;;5032881;28;1418;-70
2022/05/13 13:20:01;;;;;;;;;;;;;;;;;;5044922;28;1597;-69
2022/05/13 13:22:29;;;;;;;;;;;;;;;;;;5029363;28;1906;-70
2022/05/13 13:24:55;;;;;;;;;;;;;;;;;;5037941;28;1335;-70
2022/05/13 13:27:22;;;;;;;;;;;;;;;;;;5039151;28;1488;-70
2022/05/13 13:29:49;;;;;;;;;;;;;;;;;;5040524;28;1504;-69
2022/05/13 13:32:16;;;;;;;;;;;;;;;;;;5042903;28;1505;-69
2022/05/13 13:34:50;;;;;;;;;;;;;;;;;;5036663;28;1067;-70
2022/05/13 13:37:17;;;;;;;;;;;;;;;;;;5052191;28;1112;-70
2022/05/13 13:39:43;;;;;;;;;;;;;;;;;;5051775;28;1580;-70
2022/05/13 13:42:10;;;;;;;;;;;;;;;;;;5049949;28;1906;-67
2022/05/13 13:44:37;;;;;;;;;;;;;;;;;;5044415;28;1619;-70
2022/05/13 13:47:03;;;;;;;;;;;;;;;;;;5045089;28;1367;-70
2022/05/13 13:49:31;;;;;;;;;;;;;;;;;;5045424;28;1147;-69
2022/05/13 13:51:59;;;;;;;;;;;;;;;;;;5049503;28;1430;-70
2022/05/13 13:54:26;;;;;;;;;;;;;;;;;;5040644;28;1127;-70
2022/05/13 13:56:54;;;;;;;;;;;;;;;;;;5037197;28;1435;-69
2022/05/13 13:59:22;;;;;;;;;;;;;;;;;;5041032;28;1245;-70
2022/05/13 14:01:49;;;;;;;;;;;;;;;;;;5046254;28;1992;-69
2022/05/13 14:04:18;;;;;;;;;;;;;;;;;;5046722;28;1470;-70
2022/05/13 14:06:45;;;;;;;;;;;;;;;;;;5038647;28;1370;-70
2022/05/13 14:09:16;;;;;;;;;;;;;;;;;;5040886;28;1189;-69
2022/05/13 14:11:42;;;;;;;;;;;;;;;;;;5035145;28;1466;-70
2022/05/13 14:14:08;;;;;;;;;;;;;;;;;;5043080;28;1454;-70
2022/05/13 14:16:35;;;;;;;;;;;;;;;;;;5038858;28;1182;-70
2022/05/13 14:19:04;;;;;;;;;;;;;;;;;;5031347;28;1327;-69
2022/05/13 14:21:31;;;;;;;;;;;;;;;;;;5031747;28;1433;-68
2022/05/13 14:23:58;;;;;;;;;;;;;;;;;;5041609;28;1973;-70
2022/05/13 14:26:26;;;;;;;;;;;;;;;;;;5041824;28;1406;-71
2022/05/13 14:28:53;;;;;;;;;;;;;;;;;;5042685;28;1411;-69
2022/05/13 14:31:20;;;;;;;;;;;;;;;;;;5046936;28;1347;-71
2022/05/13 14:33:47;;;;;;;;;;;;;;;;;;5043432;28;1309;-70
2022/05/13 14:36:14;;;;;;;;;;;;;;;;;;5039978;28;1443;-69
2022/05/13 14:41:32;;;;;;;;;;;;;;;;;;5045711;28;1423;-69
2022/05/13 14:43:58;;;;;;;;;;;;;;;;;;5039947;28;1922;-68
2022/05/13 14:46:25;;;;;;;;;;;;;;;;;;5046979;28;1481;-69
2022/05/13 14:48:51;;;;;;;;;;;;;;;;;;5051530;28;902;-67
2022/05/13 14:51:18;;;;;;;;;;;;;;;;;;5042043;28;1502;-69
2022/05/13 14:53:47;;;;;;;;;;;;;;;;;;5048107;28;1302;-69
2022/05/13 14:56:14;;;;;;;;;;;;;;;;;;5042722;28;1446;-67
2022/05/13 14:58:46;;;;;;;;;;;;;;;;;;5037653;28;1404;-69
2022/05/13 15:01:14;;;;;;;;;;;;;;;;;;5038089;28;1121;-69
2022/05/13 15:03:44;;;;;;;;;;;;;;;;;;5033407;28;1922;-68
2022/05/13 15:06:18;;;;;;;;;;;;;;;;;;5036075;28;1462;-68
2022/05/13 15:08:49;;;;;;;;;;;;;;;;;;5048598;28;1363;-67
2022/05/13 15:11:16;;;;;;;;;;;;;;;;;;5046714;28;1186;-69
2022/05/13 15:13:43;;;;;;;;;;;;;;;;;;5042008;28;1435;-70
2022/05/13 15:16:12;;;;;;;;;;;;;;;;;;5045627;28;1402;-67
2022/05/13 15:18:39;;;;;;;;;;;;;;;;;;5043793;28;1122;-68
2022/05/13 15:21:05;;;;;;;;;;;;;;;;;;5030788;28;1123;-67
2022/05/13 15:23:32;;;;;;;;;;;;;;;;;;5029377;28;1919;-68
2022/05/13 15:25:58;;;;;;;;;;;;;;;;;;5048100;28;1411;-67
2022/05/13 15:28:24;;;;;;;;;;;;;;;;;;5037294;28;1101;-68
2022/05/13 15:30:51;;;;;;;;;;;;;;;;;;5029114;28;1235;-66
2022/05/13 15:33:18;;;;;;;;;;;;;;;;;;5029408;28;1401;-69
2022/05/13 15:35:44;;;;;;;;;;;;;;;;;;5035339;28;1410;-69
2022/05/13 15:38:11;;;;;;;;;;;;;;;;;;5039874;28;1430;-68
2022/05/13 15:40:38;;;;;;;;;;;;;;;;;;5042323;28;1102;-68
2022/05/13 15:43:05;;;;;;;;;;;;;;;;;;5031288;28;1989;-68
2022/05/13 15:45:32;;;;;;;;;;;;;;;;;;5033017;28;1467;-68
2022/05/13 15:47:58;;;;;;;;;;;;;;;;;;5039080;28;1411;-67
2022/05/13 15:53:10;;;;;;;;;;;;;;;;;;5034153;28;1387;-68
2022/05/13 15:55:37;;;;;;;;;;;;;;;;;;5047309;28;1414;-68
2022/05/13 15:58:05;;;;;;;;;;;;;;;;;;5045950;28;1597;-69
2022/05/13 16:00:31;;;;;;;;;;;;;;;;;;5044625;28;1135;-68
2022/05/13 16:02:58;;;;;;;;;;;;;;;;;;5036392;28;1914;-67
2022/05/13 16:05:26;;;;;;;;;;;;;;;;;;5049837;28;1418;-67
2022/05/13 16:07:53;;;;;;;;;;;;;;;;;;5036609;28;1786;-67
2022/05/13 16:10:19;;;;;;;;;;;;;;;;;;5038182;28;1000;-67
2022/05/13 16:12:46;;;;;;;;;;;;;;;;;;5041437;28;1942;-68
2022/05/13 16:15:14;;;;;;;;;;;;;;;;;;5043179;28;1495;-69
2022/05/13 16:17:40;;;;;;;;;;;;;;;;;;5040230;28;1283;-67
2022/05/13 16:20:07;;;;;;;;;;;;;;;;;;5050223;28;1044;-68
2022/05/13 16:22:35;;;;;;;;;;;;;;;;;;5049888;28;1906;-69
2022/05/13 16:25:02;;;;;;;;;;;;;;;;;;5049977;28;800;-68
2022/05/13 16:27:28;;;;;;;;;;;;;;;;;;5039278;28;1526;-68
2022/05/13 16:29:55;;;;;;;;;;;;;;;;;;5038825;28;1162;-69
2022/05/13 16:32:21;;;;;;;;;;;;;;;;;;5028076;28;1380;-69
2022/05/13 16:34:47;;;;;;;;;;;;;;;;;;5029930;28;1462;-69
2022/05/13 16:39:58;;;;;;;;;;;;;;;;;;5043414;28;1091;-68
2022/05/13 16:42:26;;;;;;;;;;;;;;;;;;5047522;28;1344;-69
2022/05/13 16:44:52;;;;;;;;;;;;;;;;;;5038378;28;1395;-68
2022/05/13 16:47:18;;;;;;;;;;;;;;;;;;5035093;28;1154;-68
2022/05/13 16:49:45;;;;;;;;;;;;;;;;;;5026424;28;1299;-69
2022/05/13 16:52:12;;;;;;;;;;;;;;;;;;5035808;28;1459;-68
2022/05/13 16:54:39;;;;;;;;;;;;;;;;;;5034989;28;1424;-69
2022/05/13 16:57:06;;;;;;;;;;;;;;;;;;5037971;28;1411;-68
2022/05/13 16:59:33;;;;;;;;;;;;;;;;;;5033286;28;1161;-68
2022/05/13 17:02:00;;;;;;;;;;;;;;;;;;5039418;28;1398;-70
2022/05/13 17:04:26;;;;;;;;;;;;;;;;;;5042886;28;1910;-70
2022/05/13 17:06:52;;;;;;;;;;;;;;;;;;5043243;28;1582;-68
2022/05/13 17:17:45;;;;;;;;;;;;;;;;;;5011149;28;1077;-69
2022/05/13 17:20:12;;;;;;;;;;;;;;;;;;5011649;28;822;-69
2022/05/13 17:22:38;;;;;;;;;;;;;;;;;;5008702;28;1922;-69
2022/05/13 17:25:04;;;;;;;;;;;;;;;;;;5032187;28;1408;-69
2022/05/13 17:27:31;;;;;;;;;;;;;;;;;;5033381;28;901;-69
2022/05/13 17:29:59;;;;;;;;;;;;;;;;;;5033487;28;865;-69
2022/05/13 17:32:25;;;;;;;;;;;;;;;;;;5033402;28;1314;-68
2022/05/13 17:34:51;;;;;;;;;;;;;;;;;;5033120;28;929;-68
2022/05/13 17:37:19;;;;;;;;;;;;;;;;;;5037937;28;1579;-68
2022/05/13 17:39:45;;;;;;;;;;;;;;;;;;5042033;28;1442;-67
2022/05/13 17:42:11;;;;;;;;;;;;;;;;;;5037596;28;1490;-69
2022/05/13 17:44:37;;;;;;;;;;;;;;;;;;5035411;28;1926;-68
2022/05/13 17:47:05;;;;;;;;;;;;;;;;;;5039183;28;1403;-68
2022/05/13 17:49:32;;;;;;;;;;;;;;;;;;5044637;28;1379;-68
2022/05/13 17:51:58;;;;;;;;;;;;;;;;;;5044183;28;1488;-69
2022/05/13 17:54:25;;;;;;;;;;;;;;;;;;5038972;28;1439;-69
2022/05/13 17:56:51;;;;;;;;;;;;;;;;;;5035369;28;1465;-67
2022/05/13 17:59:17;;;;;;;;;;;;;;;;;;5034641;28;1154;-69
2022/05/13 18:01:44;;;;;;;;;;;;;;;;;;5049330;28;1462;-67